Time;durP1;ratioP1;P1;durP2;ratioP2;P2;SDS_P1;SDS_P2;PMS_P1;PMS_P2;Temp;Humidity;BMP_temperature;BMP_pressure;BME280_temperature;BME280_humidity;BME280_pressure;Samples;Min_cycle;Max_cycle;Signal;HPM_P1;HPM_P2
2021/07/03 00:01:48;;;;;;;9.63;5.10;;;;;;;22.08;76.57;98045.20;1866755;76;22622;-56
2021/07/03 00:04:44;;;;;;;8.43;5.15;;;;;;;21.96;75.64;98046.69;1852928;76;22151;-55
2021/07/03 00:07:19;;;;;;;6.72;5.00;;;;;;;21.91;75.82;98046.53;1852938;76;22169;-55
2021/07/03 00:09:54;;;;;;;8.40;5.28;;;;;;;21.89;75.90;98043.50;1861089;76;22595;-55
2021/07/03 00:12:28;;;;;;;9.13;4.90;;;;;;;21.88;75.78;98031.30;1856135;76;22586;-55
2021/07/03 00:15:13;;;;;;;9.63;5.05;;;;;;;21.95;75.32;98042.34;1852904;76;22574;-59
2021/07/03 00:17:53;;;;;;;8.38;4.30;;;;;;;21.92;74.98;98044.28;1875638;76;22167;-59
2021/07/03 00:20:27;;;;;;;11.38;4.62;;;;;;;21.87;74.65;98041.41;1870668;76;22133;-57
2021/07/03 00:23:04;;;;;;;8.60;4.40;;;;;;;21.80;74.71;98034.75;1870830;76;22163;-58
2021/07/03 00:25:39;;;;;;;10.38;4.92;;;;;;;21.82;74.58;98036.84;1870691;76;22628;-56
2021/07/03 00:28:14;;;;;;;8.20;4.80;;;;;;;21.71;74.88;98024.72;1870674;76;22535;-58
2021/07/03 00:30:49;;;;;;;10.13;4.90;;;;;;;21.57;74.90;98033.72;1854621;76;27925;-61
2021/07/03 00:33:24;;;;;;;6.75;4.22;;;;;;;21.42;75.77;98030.94;1889967;76;22175;-58
2021/07/03 00:35:59;;;;;;;10.13;4.58;;;;;;;21.32;76.02;98006.02;1870620;76;22109;-59
2021/07/03 00:38:35;;;;;;;9.65;4.30;;;;;;;21.41;76.14;98020.50;1854663;76;27968;-56
2021/07/03 00:41:28;;;;;;;8.90;4.00;;;;;;;21.53;75.41;98007.25;1870675;76;22196;-55
2021/07/03 00:44:05;;;;;;;8.15;3.90;;;;;;;21.59;74.86;98014.81;1870492;76;22173;-59
2021/07/03 00:46:41;;;;;;;9.53;4.30;;;;;;;21.39;75.16;98007.44;1870538;76;20351;-56
2021/07/03 00:49:15;;;;;;;9.18;3.75;;;;;;;21.23;75.90;98009.92;1889944;76;22542;-60
2021/07/03 00:51:51;;;;;;;8.18;4.15;;;;;;;21.12;76.40;98020.08;1850694;76;22164;-57
2021/07/03 00:54:47;;;;;;;9.13;3.87;;;;;;;21.01;77.10;98008.78;1854694;76;28364;-58
2021/07/03 00:57:43;;;;;;;10.23;3.67;;;;;;;20.92;77.41;97997.40;1870653;76;22121;-59
2021/07/03 01:00:18;;;;;;;11.38;3.95;;;;;;;20.89;77.76;97997.55;1870784;76;22613;-55
2021/07/03 01:02:53;;;;;;;9.88;4.25;;;;;;;20.89;77.92;97988.80;1870689;76;22560;-58
2021/07/03 01:05:28;;;;;;;11.05;3.47;;;;;;;20.88;78.00;97989.27;1870685;76;22140;-57
2021/07/03 01:08:23;;;;;;;10.85;4.45;;;;;;;20.82;78.36;97988.25;1870522;76;22577;-57
2021/07/03 01:10:58;;;;;;;8.93;4.33;;;;;;;20.75;78.56;97982.43;1873905;76;28337;-56
2021/07/03 01:13:33;;;;;;;9.48;4.70;;;;;;;20.80;78.61;97978.30;1855343;76;22142;-55
2021/07/03 01:16:07;;;;;;;14.78;4.53;;;;;;;20.72;78.96;97984.36;1870699;76;22615;-52
2021/07/03 01:18:43;;;;;;;7.20;4.00;;;;;;;20.72;79.05;97980.42;1854618;76;28017;-57
2021/07/03 01:21:19;;;;;;;9.83;3.85;;;;;;;20.73;79.13;97970.31;1870696;76;22141;-55
2021/07/03 01:23:54;;;;;;;7.40;3.67;;;;;;;20.72;79.22;97971.25;1846282;76;22219;-57
2021/07/03 01:26:52;;;;;;;10.23;4.65;;;;;;;20.69;79.33;97967.47;1889961;76;22136;-55
2021/07/03 01:29:34;;;;;;;8.53;3.87;;;;;;;20.58;79.73;97967.49;1844900;76;22666;-56
2021/07/03 01:32:10;;;;;;;9.43;3.83;;;;;;;20.57;80.02;97972.80;1873905;76;27935;-54
2021/07/03 01:34:45;;;;;;;8.83;4.10;;;;;;;20.57;80.31;97975.41;1889973;76;22135;-56
2021/07/03 01:37:19;;;;;;;9.25;4.28;;;;;;;20.53;80.56;97969.44;1863773;76;22183;-59
2021/07/03 01:39:55;;;;;;;9.03;4.22;;;;;;;20.51;80.90;97964.72;1850994;76;22170;-55
2021/07/03 01:42:30;;;;;;;10.70;4.22;;;;;;;20.48;81.27;97960.94;1870688;76;22162;-58
2021/07/03 01:45:07;;;;;;;8.53;4.72;;;;;;;20.46;81.40;97957.53;1870672;76;22161;-57
2021/07/03 01:48:00;;;;;;;9.53;4.60;;;;;;;20.49;81.61;97957.38;1861103;76;20375;-55
2021/07/03 01:50:57;;;;;;;11.15;4.00;;;;;;;20.49;81.53;97951.30;1875264;76;22202;-59
2021/07/03 01:53:37;;;;;;;12.93;4.47;;;;;;;20.48;81.90;97955.70;1889868;76;22653;-60
2021/07/03 01:56:12;;;;;;;9.68;4.33;;;;;;;20.53;82.08;97960.70;1870693;76;22181;-59
2021/07/03 01:58:47;;;;;;;10.48;5.40;;;;;;;20.61;82.08;97963.88;1873896;76;27912;-59
2021/07/03 02:01:22;;;;;;;10.88;5.12;;;;;;;20.58;82.86;97955.70;1870695;76;22133;-55
2021/07/03 02:04:15;;;;;;;10.40;5.20;;;;;;;20.52;83.20;97974.27;1870653;76;22149;-50
2021/07/03 02:06:51;;;;;;;9.05;5.87;;;;;;;20.65;83.06;97975.06;1870730;76;22186;-52
2021/07/03 02:09:26;;;;;;;9.45;5.17;;;;;;;20.80;83.04;97969.95;1809464;76;28084;-56
2021/07/03 02:12:01;;;;;;;11.95;6.08;;;;;;;20.89;82.95;97971.75;1870684;76;22161;-53
2021/07/03 02:14:36;;;;;;;8.80;5.53;;;;;;;20.98;82.80;97976.11;1870816;76;22161;-55
2021/07/03 02:17:11;;;;;;;9.70;5.90;;;;;;;21.00;82.49;97972.96;1870638;76;22133;-56
2021/07/03 02:19:46;;;;;;;10.75;5.65;;;;;;;21.08;82.69;97975.69;1854655;76;27937;-58
2021/07/03 02:22:21;;;;;;;10.72;5.40;;;;;;;21.20;82.32;97978.58;1889987;76;22105;-57
2021/07/03 02:25:15;;;;;;;10.58;5.55;;;;;;;21.32;82.08;97984.15;1870680;76;22144;-59
2021/07/03 02:27:50;;;;;;;12.93;6.45;;;;;;;21.39;81.85;97986.44;1870326;76;22176;-55
2021/07/03 02:30:25;;;;;;;10.18;5.62;;;;;;;21.42;81.76;97986.31;1850819;77;22161;-51
2021/07/03 02:33:21;;;;;;;10.93;6.25;;;;;;;21.46;81.62;97983.06;1890030;76;22104;-56
2021/07/03 02:36:18;;;;;;;13.05;6.12;;;;;;;21.46;81.67;97979.97;1870544;76;22133;-57
2021/07/03 02:38:53;;;;;;;10.93;6.42;;;;;;;21.41;81.75;97978.03;1873910;76;28319;-56
2021/07/03 02:41:28;;;;;;;10.93;6.17;;;;;;;21.43;82.05;97977.50;1870628;76;22120;-57
2021/07/03 02:44:05;;;;;;;12.65;7.12;;;;;;;21.41;82.36;97981.97;1854620;76;28500;-54
2021/07/03 02:46:40;;;;;;;11.22;6.85;;;;;;;21.46;82.66;97977.34;1854820;76;28506;-56
2021/07/03 02:49:15;;;;;;;10.10;6.40;;;;;;;21.52;82.74;97974.03;1889991;76;22642;-55
2021/07/03 02:51:49;;;;;;;11.93;7.83;;;;;;;21.49;82.91;97978.12;1870741;76;22152;-55
2021/07/03 02:54:25;;;;;;;9.83;7.35;;;;;;;21.50;83.18;97985.94;1870438;76;22144;-55
2021/07/03 02:57:00;;;;;;;9.48;6.97;;;;;;;21.55;83.34;97985.69;1870677;76;22563;-57
2021/07/03 02:59:35;;;;;;;10.63;6.70;;;;;;;21.59;83.36;97987.24;1870687;76;22182;-56
2021/07/03 03:02:09;;;;;;;10.10;6.80;;;;;;;21.69;83.23;97985.86;1889959;76;22148;-56
2021/07/03 03:04:44;;;;;;;10.40;6.80;;;;;;;21.74;83.11;97990.89;1890066;76;22157;-56
2021/07/03 03:07:18;;;;;;;9.15;6.28;;;;;;;21.71;83.16;97984.02;1870686;76;22120;-56
2021/07/03 03:09:54;;;;;;;8.83;5.42;;;;;;;21.58;83.62;97977.68;1873897;76;28082;-55
2021/07/03 03:12:29;;;;;;;8.00;4.65;;;;;;;21.60;83.54;97982.37;1870633;76;22133;-58
2021/07/03 03:15:07;;;;;;;6.28;4.30;;;;;;;21.68;83.29;97985.02;1870674;76;22201;-57
2021/07/03 03:17:40;;;;;;;8.35;4.37;;;;;;;21.74;82.82;97981.23;1870902;76;22120;-54
2021/07/03 03:20:16;;;;;;;8.00;5.45;;;;;;;21.58;82.95;97988.19;1854710;76;28077;-56
2021/07/03 03:23:11;;;;;;;9.45;5.10;;;;;;;21.67;82.98;97991.64;1870603;76;22102;-52
2021/07/03 03:26:06;;;;;;;6.28;4.53;;;;;;;21.71;82.68;97993.20;1870463;75;22633;-52
2021/07/03 03:28:41;;;;;;;7.28;4.53;;;;;;;21.74;82.29;97996.14;1870697;76;22145;-54
2021/07/03 03:31:15;;;;;;;7.75;5.03;;;;;;;21.70;82.32;97994.58;1870702;76;22190;-57
2021/07/03 03:33:50;;;;;;;8.70;4.60;;;;;;;21.64;82.48;97997.05;1870676;76;22255;-58
2021/07/03 03:36:25;;;;;;;7.37;5.15;;;;;;;21.53;82.73;98000.69;1873957;76;28074;-58
2021/07/03 03:39:01;;;;;;;7.47;4.60;;;;;;;21.63;82.68;98005.88;1854630;76;27898;-58
2021/07/03 03:41:36;;;;;;;6.75;4.20;;;;;;;21.66;82.60;98005.24;1870306;76;22167;-53
2021/07/03 03:44:11;;;;;;;6.45;4.30;;;;;;;21.70;82.28;98003.30;1854138;76;22186;-58
2021/07/03 03:46:51;;;;;;;6.12;4.80;;;;;;;21.72;82.15;97996.67;1853728;76;22143;-58
2021/07/03 03:49:43;;;;;;;5.55;4.10;;;;;;;21.79;81.55;98009.89;1854226;76;22146;-63
2021/07/03 03:52:18;;;;;;;7.25;4.60;;;;;;;21.83;80.88;98011.42;1856360;76;22136;-58
2021/07/03 03:54:52;;;;;;;7.50;4.85;;;;;;;21.77;80.72;98009.95;1846760;76;22285;-59
2021/07/03 03:57:30;;;;;;;7.75;5.08;;;;;;;21.77;80.91;98012.59;1856466;76;22155;-59
2021/07/03 04:00:28;;;;;;;8.63;4.15;;;;;;;21.81;80.68;98007.58;1863992;76;22591;-61
2021/07/03 04:03:22;;;;;;;5.30;3.90;;;;;;;21.78;80.43;98010.36;1870551;76;22558;-60
2021/07/03 04:05:58;;;;;;;6.60;4.00;;;;;;;21.82;80.15;98012.36;1842175;76;28592;-59
2021/07/03 04:08:34;;;;;;;5.83;4.05;;;;;;;21.95;79.67;98009.97;1857614;76;22631;-59
2021/07/03 04:11:29;;;;;;;5.67;3.55;;;;;;;22.01;79.21;98016.25;1846757;75;22215;-63
2021/07/03 04:14:04;;;;;;;6.47;4.50;;;;;;;21.97;79.14;98018.63;1854693;76;28355;-61
2021/07/03 04:16:39;;;;;;;8.15;4.30;;;;;;;22.06;79.06;98014.23;1870672;76;22141;-62
2021/07/03 04:19:14;;;;;;;7.05;3.85;;;;;;;22.15;78.42;98005.86;1889935;76;22174;-63
2021/07/03 04:21:49;;;;;;;5.97;4.10;;;;;;;22.23;77.90;98006.34;1889999;76;22131;-64
2021/07/03 04:24:25;;;;;;;5.78;3.85;;;;;;;22.29;77.07;98006.52;1854613;76;27911;-63
2021/07/03 04:27:04;;;;;;;4.72;3.77;;;;;;;22.39;76.61;98005.10;1870919;76;22137;-59
2021/07/03 04:29:58;;;;;;;5.17;3.52;;;;;;;22.48;76.37;98006.38;1870693;76;22113;-63
2021/07/03 04:32:34;;;;;;;4.75;3.47;;;;;;;22.55;75.94;98011.71;1870665;76;22153;-64
2021/07/03 04:35:11;;;;;;;5.40;3.58;;;;;;;22.63;75.37;98008.20;1870634;76;22563;-62
2021/07/03 04:37:46;;;;;;;4.92;3.55;;;;;;;22.73;74.96;98008.09;1889915;76;22590;-64
2021/07/03 04:40:27;;;;;;;5.72;3.27;;;;;;;22.85;74.48;98013.16;1889904;76;22171;-64
2021/07/03 04:43:21;;;;;;;5.80;3.50;;;;;;;23.04;74.00;98013.03;1890010;76;22132;-64
2021/07/03 04:46:16;;;;;;;5.20;3.60;;;;;;;23.16;73.41;98012.36;1894309;76;22083;-64
2021/07/03 04:49:13;;;;;;;4.78;3.40;;;;;;;23.30;72.96;98018.63;1870223;76;22164;-63
2021/07/03 04:52:10;;;;;;;5.35;3.65;;;;;;;23.30;71.77;98024.73;1946765;73;22541;-64
2021/07/03 04:54:50;;;;;;;7.37;4.22;;;;;;;23.27;72.19;98022.28;1889973;76;22164;-63
2021/07/03 04:57:26;;;;;;;6.45;4.25;;;;;;;23.40;71.62;98021.13;1946832;73;22121;-62
2021/07/03 05:00:01;;;;;;;5.60;3.80;;;;;;;23.31;71.11;98020.34;1889898;76;22220;-64
2021/07/03 05:02:35;;;;;;;5.30;3.15;;;;;;;23.05;71.62;98021.33;1870624;76;22132;-64
2021/07/03 05:05:35;;;;;;;6.20;3.67;;;;;;;23.03;72.59;98013.13;1869834;76;22193;-61
2021/07/03 05:08:09;;;;;;;7.00;3.72;;;;;;;23.35;72.46;98020.06;1870714;76;22116;-64
2021/07/03 05:10:44;;;;;;;6.47;3.92;;;;;;;23.71;71.59;98017.63;1870680;76;22140;-64
2021/07/03 05:13:24;;;;;;;5.60;3.98;;;;;;;24.00;70.25;98025.16;1869793;76;22173;-59
2021/07/03 05:16:00;;;;;;;5.40;3.90;;;;;;;24.12;69.99;98024.05;1870594;76;22174;-61
2021/07/03 05:18:34;;;;;;;7.25;3.80;;;;;;;24.36;69.11;98018.64;1889960;76;22189;-65
2021/07/03 05:21:10;;;;;;;6.03;3.80;;;;;;;24.44;68.61;98019.02;1889975;76;22167;-62
2021/07/03 05:23:44;;;;;;;5.70;3.80;;;;;;;24.65;68.28;98024.83;1870665;76;22165;-62
2021/07/03 05:26:19;;;;;;;5.20;3.83;;;;;;;24.93;67.44;98020.92;1870414;76;22169;-61
2021/07/03 05:28:55;;;;;;;7.53;4.50;;;;;;;25.10;66.32;98020.23;1848877;76;27943;-62
2021/07/03 05:31:30;;;;;;;5.58;3.85;;;;;;;25.07;65.82;98022.23;1870647;76;22177;-60
2021/07/03 05:34:04;;;;;;;6.25;4.30;;;;;;;24.76;66.31;98020.67;1870677;76;22239;-61
2021/07/03 05:36:39;;;;;;;8.00;4.50;;;;;;;24.57;67.01;98019.63;1870644;76;22140;-65
2021/07/03 05:39:15;;;;;;;8.63;4.28;;;;;;;24.60;67.58;98015.47;1890026;76;22167;-64
2021/07/03 05:41:56;;;;;;;5.95;3.83;;;;;;;25.00;66.87;98024.88;1869915;76;22161;-63
2021/07/03 05:44:32;;;;;;;5.72;3.98;;;;;;;25.38;65.84;98017.19;1854628;76;27892;-60
2021/07/03 05:47:12;;;;;;;6.00;4.08;;;;;;;25.86;64.23;98028.65;1869832;76;22169;-61
2021/07/03 05:49:48;;;;;;;11.10;4.40;;;;;;;26.22;62.45;98021.83;1870855;76;22160;-61
2021/07/03 05:52:24;;;;;;;5.78;3.77;;;;;;;26.53;61.74;98025.41;1870501;76;22148;-59
2021/07/03 05:54:59;;;;;;;6.90;4.67;;;;;;;26.84;60.94;98021.48;1865057;76;22175;-62
2021/07/03 05:57:34;;;;;;;5.87;3.80;;;;;;;27.51;59.29;98030.86;1854910;76;27909;-60
2021/07/03 06:00:12;;;;;;;4.70;3.10;;;;;;;29.10;55.58;98039.11;1870587;76;22144;-61
2021/07/03 06:03:06;;;;;;;6.33;2.98;;;;;;;30.93;49.72;98047.41;1870642;76;22120;-64
2021/07/03 06:05:59;;;;;;;4.78;2.85;;;;;;;32.28;45.85;98049.62;1870670;76;22145;-63
2021/07/03 06:08:35;;;;;;;5.22;3.02;;;;;;;33.12;43.81;98062.22;1835070;77;22244;-59
2021/07/03 06:11:10;;;;;;;4.85;3.12;;;;;;;34.32;41.91;98061.50;1870654;76;22046;-60
2021/07/03 06:13:45;;;;;;;4.83;2.77;;;;;;;35.30;39.37;98069.80;1870706;76;22144;-62
2021/07/03 06:16:20;;;;;;;4.87;3.20;;;;;;;35.86;37.25;98070.98;1870674;76;22062;-63
2021/07/03 06:18:55;;;;;;;4.83;2.60;;;;;;;36.33;36.56;98082.43;1870655;76;22469;-64
2021/07/03 06:21:49;;;;;;;8.65;2.52;;;;;;;36.51;35.12;98084.94;1877485;76;22081;-61
2021/07/03 06:24:24;;;;;;;3.10;2.02;;;;;;;36.73;35.49;98087.47;1855380;76;22140;-62
2021/07/03 06:26:58;;;;;;;4.55;2.30;;;;;;;37.51;34.14;98089.95;1853040;76;22523;-62
2021/07/03 06:29:34;;;;;;;4.70;2.60;;;;;;;38.40;32.32;98086.32;1858168;76;22067;-73
2021/07/03 06:32:29;;;;;;;3.67;2.10;;;;;;;38.92;31.76;98096.30;1851889;76;22160;-62
2021/07/03 06:35:06;;;;;;;3.22;2.00;;;;;;;39.29;30.47;98098.58;1855451;76;22074;-63
2021/07/03 06:37:41;;;;;;;7.78;2.90;;;;;;;39.00;30.23;98098.06;1856163;76;22165;-61
2021/07/03 06:40:15;;;;;;;6.15;2.47;;;;;;;38.76;30.51;98097.80;1854161;76;22124;-63
2021/07/03 06:42:50;;;;;;;7.08;2.47;;;;;;;38.50;31.49;98096.37;1853056;76;22530;-64
2021/07/03 06:45:25;;;;;;;2.75;1.82;;;;;;;39.00;30.74;98100.25;1855360;76;22086;-64
2021/07/03 06:47:59;;;;;;;4.08;2.10;;;;;;;39.20;30.06;98097.00;1856600;76;22120;-64
2021/07/03 06:50:34;;;;;;;4.53;2.35;;;;;;;39.60;29.71;98102.94;1853381;76;22182;-63
2021/07/03 06:53:09;;;;;;;3.20;2.00;;;;;;;40.65;28.47;98105.03;1853716;76;22186;-62
2021/07/03 06:55:44;;;;;;;5.00;2.10;;;;;;;41.56;27.48;98109.06;1839769;76;27990;-63
2021/07/03 06:58:19;;;;;;;4.30;2.17;;;;;;;41.80;26.21;98114.44;1855448;76;22114;-63
2021/07/03 07:01:00;;;;;;;4.25;2.45;;;;;;;40.81;27.17;98114.73;1852053;76;22164;-66
2021/07/03 07:03:34;;;;;;;4.20;1.82;;;;;;;40.46;27.20;98109.79;1851096;76;22184;-63
2021/07/03 07:06:09;;;;;;;4.03;2.35;;;;;;;39.28;28.34;98103.64;1863996;76;22104;-60
2021/07/03 07:08:44;;;;;;;4.03;2.30;;;;;;;37.90;30.17;98098.46;1855683;76;22176;-61
2021/07/03 07:11:18;;;;;;;5.15;2.17;;;;;;;36.78;31.84;98103.92;1856926;76;22128;-62
2021/07/03 07:13:54;;;;;;;4.47;2.10;;;;;;;36.39;32.53;98099.24;1836490;76;28017;-63
2021/07/03 07:16:28;;;;;;;3.05;1.70;;;;;;;36.54;33.18;98092.69;1853669;76;22657;-63
2021/07/03 07:19:04;;;;;;;7.28;2.30;;;;;;;37.77;31.86;98102.58;1855774;76;22070;-61
2021/07/03 07:21:38;;;;;;;5.17;2.05;;;;;;;38.89;30.21;98104.77;1855075;76;30915;-62
2021/07/03 07:24:13;;;;;;;4.47;1.82;;;;;;;39.22;29.66;98117.38;1858198;76;22507;-61
2021/07/03 07:26:48;;;;;;;3.67;2.00;;;;;;;39.44;29.19;98111.58;1853785;76;22203;-63
2021/07/03 07:29:42;;;;;;;3.47;2.00;;;;;;;39.82;28.63;98120.89;1855964;76;22074;-64
2021/07/03 07:32:24;;;;;;;3.75;1.75;;;;;;;40.38;28.12;98131.53;1855769;76;22109;-62
2021/07/03 07:34:58;;;;;;;3.98;1.72;;;;;;;40.37;27.89;98134.76;1853181;76;22531;-63
2021/07/03 07:37:33;;;;;;;6.47;1.90;;;;;;;38.45;30.27;98124.91;1854275;76;22104;-62
2021/07/03 07:40:10;;;;;;;3.02;1.80;;;;;;;37.14;32.27;98123.19;1852436;76;22050;-62
2021/07/03 07:42:46;;;;;;;5.03;2.27;;;;;;;36.00;34.06;98113.30;1855418;76;22094;-64
2021/07/03 07:45:22;;;;;;;3.20;2.17;;;;;;;34.89;35.86;98116.00;1861194;76;22185;-63
2021/07/03 07:47:57;;;;;;;4.10;2.37;;;;;;;33.94;37.78;98111.68;1852854;76;22102;-63
2021/07/03 07:50:32;;;;;;;5.75;2.50;;;;;;;33.29;39.11;98115.75;1852999;76;22112;-63
2021/07/03 07:53:07;;;;;;;5.75;2.50;;;;;;;32.84;40.15;98112.94;1854007;76;22525;-65
2021/07/03 07:55:41;;;;;;;5.90;2.70;;;;;;;32.68;40.83;98104.69;1856629;76;22274;-64
2021/07/03 07:58:18;;;;;;;6.12;2.75;;;;;;;32.84;40.85;98102.24;1851853;76;22522;-64
2021/07/03 08:00:53;;;;;;;6.47;2.30;;;;;;;33.68;39.66;98096.83;1863332;76;22229;-63
2021/07/03 08:03:28;;;;;;;5.50;2.33;;;;;;;34.67;38.05;98095.92;1841904;76;28358;-61
2021/07/03 08:06:02;;;;;;;3.58;2.17;;;;;;;35.98;36.23;98107.25;1866203;76;22526;-61
2021/07/03 08:08:39;;;;;;;5.80;2.40;;;;;;;37.34;33.88;98110.17;1853111;76;20374;-63
2021/07/03 08:11:22;;;;;;;4.45;2.30;;;;;;;38.15;32.39;98114.81;1852405;76;22092;-62
2021/07/03 08:13:56;;;;;;;7.22;2.33;;;;;;;38.65;31.77;98116.11;1862991;76;22123;-64
2021/07/03 08:16:32;;;;;;;7.27;2.77;;;;;;;39.40;30.79;98117.02;1853082;76;27995;-63
2021/07/03 08:19:32;;;;;;;5.35;2.20;;;;;;;40.04;29.43;98125.78;1851728;76;22104;-63
2021/07/03 08:22:06;;;;;;;5.15;2.67;;;;;;;39.86;29.75;98127.56;1859562;76;22474;-64
2021/07/03 08:24:41;;;;;;;3.87;2.15;;;;;;;39.68;29.87;98132.53;1852131;76;22527;-63
2021/07/03 08:27:16;;;;;;;3.95;2.20;;;;;;;39.35;30.15;98132.95;1868047;76;22183;-63
2021/07/03 08:29:50;;;;;;;4.15;2.20;;;;;;;38.78;30.59;98135.70;1852838;76;22508;-64
2021/07/03 08:32:25;;;;;;;4.37;2.40;;;;;;;38.49;31.16;98132.42;1852194;76;22590;-62
2021/07/03 08:35:00;;;;;;;4.62;2.37;;;;;;;38.45;31.07;98127.08;1852120;76;22116;-62
2021/07/03 08:37:35;;;;;;;6.00;2.42;;;;;;;38.50;31.10;98135.47;1854216;76;22114;-62
2021/07/03 08:40:12;;;;;;;5.65;2.40;;;;;;;39.13;30.10;98135.20;1855139;76;22085;-64
2021/07/03 08:43:05;;;;;;;6.78;2.40;;;;;;;39.90;29.17;98136.14;1836294;76;28349;-64
2021/07/03 08:46:00;;;;;;;3.75;2.00;;;;;;;40.50;28.08;98138.09;1850560;76;22542;-63
2021/07/03 08:48:35;;;;;;;3.58;2.00;;;;;;;40.91;27.69;98145.52;1858001;76;22158;-67
2021/07/03 08:51:28;;;;;;;5.17;2.02;;;;;;;39.65;28.55;98139.66;1855361;76;22653;-63
2021/07/03 08:54:09;;;;;;;6.12;2.47;;;;;;;38.18;30.79;98124.39;1868045;76;22124;-61
2021/07/03 08:57:04;;;;;;;6.45;2.50;;;;;;;38.37;30.72;98128.44;1855747;76;22922;-63
2021/07/03 08:59:59;;;;;;;3.10;2.22;;;;;;;38.47;30.16;98121.49;1862516;76;22177;-62
2021/07/03 09:02:42;;;;;;;4.58;2.40;;;;;;;36.89;32.17;98121.06;1839117;76;27998;-64
2021/07/03 09:05:44;;;;;;;4.67;2.50;;;;;;;36.13;33.63;98112.84;1849211;76;22666;-68
2021/07/03 09:08:22;;;;;;;4.28;2.55;;;;;;;35.82;34.15;98112.58;1871063;76;22733;-63
2021/07/03 09:11:05;;;;;;;4.47;2.47;;;;;;;35.99;34.18;98105.41;1889921;76;22594;-64
2021/07/03 09:13:43;;;;;;;3.98;2.27;;;;;;;36.01;34.01;98101.55;1870584;76;22062;-65
2021/07/03 09:16:30;;;;;;;5.47;2.60;;;;;;;35.86;34.07;98097.83;1870662;76;22091;-69
2021/07/03 09:19:05;;;;;;;5.00;2.65;;;;;;;35.44;34.70;98097.34;1889942;76;22085;-59
2021/07/03 09:21:40;;;;;;;6.20;2.85;;;;;;;35.31;34.96;98095.62;1870540;76;20101;-64
2021/07/03 09:24:15;;;;;;;5.55;2.83;;;;;;;34.38;35.87;98092.67;1889927;76;22081;-62
2021/07/03 09:27:05;;;;;;;7.50;2.60;;;;;;;33.91;36.27;98091.05;1889966;76;22464;-65
2021/07/03 09:29:52;;;;;;;5.87;3.27;;;;;;;33.46;37.08;98084.70;1870688;76;22078;-66
2021/07/03 09:33:08;;;;;;;4.78;3.25;;;;;;;32.84;38.20;98080.86;1871295;75;22627;-68
2021/07/03 09:36:06;;;;;;;6.28;2.85;;;;;;;32.62;38.76;98082.07;1889927;76;22247;-64
2021/07/03 09:38:50;;;;;;;4.75;2.90;;;;;;;32.25;39.29;98079.28;1870545;76;22074;-64
2021/07/03 09:41:31;;;;;;;5.03;2.92;;;;;;;31.99;39.75;98078.52;1870671;76;22091;-63
2021/07/03 09:44:10;;;;;;;9.30;2.92;;;;;;;31.90;40.66;98080.65;1889902;76;22247;-67
2021/07/03 09:47:04;;;;;;;5.75;2.95;;;;;;;31.87;40.85;98082.27;1870683;76;22706;-62
2021/07/03 09:49:45;;;;;;;6.17;3.42;;;;;;;31.76;41.16;98084.08;1889521;76;22175;-65
2021/07/03 09:52:39;;;;;;;6.62;2.87;;;;;;;31.57;41.61;98073.37;1870691;76;22054;-63
2021/07/03 09:55:14;;;;;;;4.97;2.75;;;;;;;31.33;41.79;98071.89;1870797;76;22224;-66
2021/07/03 09:57:49;;;;;;;4.58;2.77;;;;;;;31.14;42.45;98072.69;1889969;76;22074;-67
2021/07/03 10:00:25;;;;;;;5.90;3.27;;;;;;;31.06;42.90;98070.32;1889954;76;22041;-66
2021/07/03 10:03:00;;;;;;;6.28;2.92;;;;;;;30.97;43.04;98072.48;1870695;76;22590;-63
2021/07/03 10:05:40;;;;;;;6.12;2.98;;;;;;;30.82;43.12;98067.98;1870676;76;22209;-65
2021/07/03 10:08:19;;;;;;;5.90;3.27;;;;;;;30.74;43.20;98067.29;1889983;76;22054;-64
2021/07/03 10:10:59;;;;;;;6.53;2.90;;;;;;;30.74;43.68;98059.30;1889989;76;22499;-64
2021/07/03 10:13:34;;;;;;;5.55;3.25;;;;;;;30.62;44.25;98059.02;1889981;76;22231;-64
2021/07/03 10:16:13;;;;;;;7.42;3.20;;;;;;;30.50;44.73;98056.91;1889941;76;22504;-64
2021/07/03 10:18:48;;;;;;;5.40;3.30;;;;;;;30.37;44.81;98047.79;1870511;76;22169;-64
2021/07/03 10:21:23;;;;;;;6.08;3.22;;;;;;;30.44;44.87;98046.30;1889956;76;22053;-64
2021/07/03 10:24:23;;;;;;;6.67;2.98;;;;;;;30.31;45.44;98046.99;1854535;76;27916;-65
2021/07/03 10:26:57;;;;;;;4.58;2.72;;;;;;;30.39;45.19;98043.19;1870759;76;22205;-64
2021/07/03 10:29:40;;;;;;;5.35;3.02;;;;;;;30.33;45.12;98041.52;1869814;76;22262;-67
2021/07/03 10:32:32;;;;;;;6.65;3.35;;;;;;;30.41;45.28;98032.42;1870698;76;22295;-65
2021/07/03 10:37:55;;;;;;;4.72;3.22;;;;;;;30.45;45.20;98032.00;1870480;76;22568;-65
2021/07/03 10:41:18;;;;;;;6.53;3.00;;;;;;;30.43;44.93;98032.64;1870584;76;22197;-67
2021/07/03 10:44:01;;;;;;;6.15;2.83;;;;;;;30.30;45.42;98034.64;1870646;76;22692;-66
2021/07/03 10:46:41;;;;;;;6.75;3.10;;;;;;;30.18;45.51;98042.33;1889935;76;22298;-67
2021/07/03 10:49:21;;;;;;;7.85;3.05;;;;;;;30.01;45.94;98037.91;1870607;76;22208;-66
2021/07/03 10:52:17;;;;;;;6.25;2.95;;;;;;;30.15;46.09;98038.56;1889900;76;22575;-64
2021/07/03 10:55:11;;;;;;;6.90;3.35;;;;;;;30.23;45.57;98044.11;1873883;76;27884;-67
2021/07/03 10:57:47;;;;;;;5.85;3.15;;;;;;;30.45;45.04;98041.31;1889953;76;22167;-64
2021/07/03 11:00:24;;;;;;;4.90;2.95;;;;;;;30.48;44.58;98045.08;1889936;76;22469;-65
2021/07/03 11:03:25;;;;;;;6.37;3.37;;;;;;;30.52;44.47;98037.66;1854660;76;27904;-63
2021/07/03 11:06:05;;;;;;;4.47;2.75;;;;;;;30.42;44.78;98045.58;1870653;76;22509;-66
2021/07/03 11:08:43;;;;;;;4.42;2.75;;;;;;;30.23;45.40;98045.44;1889912;76;22139;-63
2021/07/03 11:11:18;;;;;;;7.10;3.85;;;;;;;30.03;46.04;98037.80;1870677;76;22148;-65
2021/07/03 11:13:59;;;;;;;7.50;3.42;;;;;;;29.81;46.42;98039.57;1870003;76;22132;-61
2021/07/03 11:16:33;;;;;;;8.23;3.35;;;;;;;29.60;46.79;98052.80;1889932;76;22054;-66
2021/07/03 11:19:08;;;;;;;5.33;2.40;;;;;;;29.40;47.50;98052.24;1889961;76;22135;-66
2021/07/03 11:21:45;;;;;;;8.18;2.90;;;;;;;29.15;48.11;98049.37;1870627;76;22326;-65
2021/07/03 11:24:20;;;;;;;5.45;3.30;;;;;;;28.95;48.51;98044.28;1870716;76;22228;-65
2021/07/03 11:27:00;;;;;;;5.08;3.33;;;;;;;28.84;48.45;98047.80;1870695;76;22438;-62
2021/07/03 11:29:34;;;;;;;5.17;3.15;;;;;;;28.76;48.62;98043.58;1890049;76;22143;-67
2021/07/03 11:32:09;;;;;;;5.60;3.58;;;;;;;28.77;48.79;98044.77;1889964;76;20092;-65
2021/07/03 11:34:58;;;;;;;15.90;7.65;;;;;;;28.70;49.18;98036.94;1870676;76;22570;-67
2021/07/03 11:37:36;;;;;;;6.00;3.83;;;;;;;28.49;49.76;98029.30;1890084;76;22274;-66
2021/07/03 11:40:21;;;;;;;8.63;3.30;;;;;;;28.35;49.91;98021.90;1889982;76;22563;-65
2021/07/03 11:43:15;;;;;;;7.78;4.12;;;;;;;28.22;50.54;98021.64;1870667;76;22291;-68
2021/07/03 11:45:54;;;;;;;9.45;4.60;;;;;;;27.91;52.00;98024.81;1870797;76;22145;-67
2021/07/03 11:48:29;;;;;;;14.23;6.20;;;;;;;27.71;53.20;98031.56;1870684;76;22112;-64
2021/07/03 11:51:04;;;;;;;13.13;6.87;;;;;;;27.53;55.49;98029.41;1870605;76;22173;-66
2021/07/03 11:53:41;;;;;;;13.00;7.85;;;;;;;27.28;57.53;98026.75;1854716;76;38652;-65
2021/07/03 11:56:15;;;;;;;12.30;6.90;;;;;;;26.92;60.07;98022.27;1870723;76;20204;-62
2021/07/03 11:58:52;;;;;;;7.58;5.50;;;;;;;26.67;60.20;98023.14;1870453;76;20101;-65
2021/07/03 12:01:28;;;;;;;10.78;6.55;;;;;;;26.62;60.66;98024.78;1874028;76;28306;-65
2021/07/03 12:04:22;;;;;;;11.22;6.20;;;;;;;26.59;61.13;98028.13;1870567;76;22160;-63
2021/07/03 12:07:01;;;;;;;8.85;6.92;;;;;;;26.46;61.91;98029.88;1870465;76;22579;-65
2021/07/03 12:09:35;;;;;;;11.10;7.30;;;;;;;26.23;63.41;98031.45;1889937;76;22119;-63
2021/07/03 12:12:10;;;;;;;9.73;7.43;;;;;;;25.92;64.87;98030.87;1854919;76;27940;-68
2021/07/03 12:14:46;;;;;;;10.75;6.65;;;;;;;25.69;65.77;98038.48;1854585;76;28342;-64
2021/07/03 12:17:22;;;;;;;7.60;4.83;;;;;;;25.47;66.59;98038.22;1870437;76;22168;-66
2021/07/03 12:20:10;;;;;;;7.67;5.05;;;;;;;25.28;67.44;98036.73;1854644;76;27930;-67
2021/07/03 12:23:01;;;;;;;7.00;4.97;;;;;;;25.24;67.25;98034.37;1870669;76;22555;-65
2021/07/03 12:25:37;;;;;;;8.60;4.97;;;;;;;25.10;67.31;98032.12;1870509;76;22136;-63
2021/07/03 12:28:32;;;;;;;7.75;5.75;;;;;;;24.91;67.85;98032.44;1870690;76;22551;-67
2021/07/03 12:31:10;;;;;;;8.93;5.20;;;;;;;24.74;69.18;98030.47;1870881;76;22139;-64
2021/07/03 12:33:44;;;;;;;8.00;5.95;;;;;;;24.56;69.96;98030.66;1870851;76;22230;-67